Time;durP1;ratioP1;P1;durP2;ratioP2;P2;SDS_P1;SDS_P2;PMS_P1;PMS_P2;Temp;Humidity;BMP_temperature;BMP_pressure;BME280_temperature;BME280_humidity;BME280_pressure;Samples;Min_cycle;Max_cycle;Signal;HPM_P1;HPM_P2
2023/06/01 00:02:11;;;;;;;7.90;2.00;;;11.50;99.90;;;;;;5035541;28;20029;-75
2023/06/01 00:04:40;;;;;;;4.95;2.22;;;11.40;99.90;;;;;;5053399;28;20025;-75
2023/06/01 00:07:06;;;;;;;9.30;2.63;;;11.50;99.90;;;;;;5053424;28;20049;-75
2023/06/01 00:09:32;;;;;;;6.00;2.22;;;11.40;99.90;;;;;;5053223;28;20029;-75
2023/06/01 00:11:57;;;;;;;5.50;2.20;;;11.40;99.90;;;;;;5035306;28;20033;-75
2023/06/01 00:14:23;;;;;;;5.53;1.48;;;11.40;99.90;;;;;;5035580;28;20541;-75
2023/06/01 00:16:48;;;;;;;6.68;2.40;;;11.50;99.90;;;;;;5053696;28;20374;-75
2023/06/01 00:19:14;;;;;;;7.47;2.10;;;11.40;99.90;;;;;;5053128;28;20037;-75
2023/06/01 00:21:41;;;;;;;4.50;1.55;;;11.40;99.90;;;;;;5035819;28;20137;-75
2023/06/01 00:24:07;;;;;;;5.85;1.52;;;11.40;99.90;;;;;;5053229;28;20060;-75
2023/06/01 00:26:32;;;;;;;7.18;1.58;;;11.40;99.90;;;;;;5053253;28;20075;-75
2023/06/01 00:28:59;;;;;;;6.82;1.85;;;11.40;99.90;;;;;;5053259;28;20438;-75
2023/06/01 00:31:25;;;;;;;6.53;1.73;;;11.40;99.90;;;;;;5052976;28;20495;-75
2023/06/01 00:33:52;;;;;;;8.02;2.35;;;11.50;99.90;;;;;;5053082;28;20025;-75
2023/06/01 00:36:18;;;;;;;7.03;3.00;;;11.40;99.90;;;;;;5036378;28;20027;-74
2023/06/01 00:38:43;;;;;;;8.13;1.70;;;11.40;99.90;;;;;;5039371;28;20017;-74
2023/06/01 00:41:09;;;;;;;10.30;3.10;;;11.40;99.90;;;;;;5057256;28;20029;-74
2023/06/01 00:43:35;;;;;;;12.80;2.22;;;11.40;99.90;;;;;;5057126;28;20024;-74
2023/06/01 00:46:01;;;;;;;7.80;2.13;;;11.40;99.90;;;;;;5057638;28;20480;-74
2023/06/01 00:48:26;;;;;;;10.27;2.25;;;11.40;99.90;;;;;;5039074;28;20097;-74
2023/06/01 00:50:52;;;;;;;7.35;2.00;;;11.70;99.90;;;;;;5056941;28;20025;-74
2023/06/01 00:53:20;;;;;;;4.50;1.83;;;12.40;99.90;;;;;;5039031;28;20020;-74
2023/06/01 00:55:46;;;;;;;7.22;1.90;;;11.40;99.90;;;;;;5056994;28;20025;-75
2023/06/01 00:58:13;;;;;;;7.63;2.67;;;11.50;99.90;;;;;;5056882;28;20021;-74
2023/06/01 01:00:40;;;;;;;7.78;1.98;;;11.50;99.90;;;;;;5056896;28;20096;-74
2023/06/01 01:03:09;;;;;;;5.88;1.52;;;11.50;99.90;;;;;;5038699;28;20025;-74
2023/06/01 01:05:39;;;;;;;9.82;1.80;;;11.50;99.90;;;;;;5056611;28;20024;-74
2023/06/01 01:08:16;;;;;;;4.47;1.90;;;11.50;99.90;;;;;;5038768;28;20434;-74
2023/06/01 01:11:06;;;;;;;9.43;2.40;;;11.50;99.90;;;;;;5056531;28;20022;-74
2023/06/01 01:13:46;;;;;;;5.40;1.77;;;11.50;99.90;;;;;;5056640;28;20106;-75
2023/06/01 01:16:31;;;;;;;5.20;1.52;;;11.40;99.90;;;;;;5038664;28;20017;-76
2023/06/01 01:19:21;;;;;;;6.68;1.83;;;11.50;99.90;;;;;;5056354;28;20406;-75
2023/06/01 01:22:03;;;;;;;8.60;2.63;;;11.50;99.90;;;;;;5056988;28;20106;-74
2023/06/01 01:24:53;;;;;;;7.40;2.53;;;11.50;99.90;;;;;;5056517;28;20025;-76
2023/06/01 01:27:37;;;;;;;9.38;2.17;;;11.50;99.90;;;;;;5038490;28;20029;-75
2023/06/01 01:30:05;;;;;;;7.53;1.63;;;11.50;99.90;;;;;;5056327;28;20031;-75
2023/06/01 01:32:32;;;;;;;12.35;1.80;;;11.60;99.90;;;;;;5056238;28;20555;-75
2023/06/01 01:35:00;;;;;;;10.60;2.50;;;11.50;99.90;;;;;;5056247;28;20028;-74
2023/06/01 01:37:25;;;;;;;13.98;1.52;;;11.50;99.90;;;;;;5056231;28;20021;-75
2023/06/01 01:39:51;;;;;;;5.68;1.77;;;11.50;99.90;;;;;;5056271;28;20021;-75
2023/06/01 01:42:17;;;;;;;11.63;2.08;;;11.50;99.90;;;;;;5038386;28;20513;-75
2023/06/01 01:44:43;;;;;;;13.40;2.65;;;12.30;99.90;;;;;;5056049;28;20491;-75
2023/06/01 01:47:25;;;;;;;4.85;1.52;;;11.40;99.90;;;;;;5056157;28;20063;-75
2023/06/01 01:49:59;;;;;;;7.60;1.92;;;11.40;99.90;;;;;;5037672;28;20022;-75
2023/06/01 01:52:35;;;;;;;6.72;1.58;;;11.60;99.90;;;;;;5038219;28;20111;-75
2023/06/01 01:55:02;;;;;;;9.93;2.88;;;11.40;99.90;;;;;;5038251;28;20017;-75
2023/06/01 01:57:29;;;;;;;3.55;1.42;;;11.40;99.90;;;;;;5038121;28;20391;-75
2023/06/01 01:59:55;;;;;;;9.13;2.05;;;11.40;99.90;;;;;;5037899;28;20017;-75
2023/06/01 02:02:22;;;;;;;5.93;1.58;;;12.00;99.90;;;;;;5037921;28;20029;-74
2023/06/01 02:04:47;;;;;;;10.07;2.35;;;11.30;99.90;;;;;;5055798;28;20396;-75
2023/06/01 02:07:13;;;;;;;5.22;1.77;;;11.40;99.90;;;;;;5037888;28;20017;-75
2023/06/01 02:09:40;;;;;;;6.60;1.95;;;11.40;99.90;;;;;;5055698;28;20055;-74
2023/06/01 02:12:06;;;;;;;7.10;2.35;;;11.30;99.90;;;;;;5055457;28;20036;-74
2023/06/01 02:14:32;;;;;;;6.57;1.65;;;11.30;99.90;;;;;;5055530;28;20040;-74
2023/06/01 02:16:57;;;;;;;4.63;2.28;;;11.30;99.90;;;;;;5055505;28;20032;-74
2023/06/01 02:19:23;;;;;;;8.55;1.98;;;11.10;99.90;;;;;;5055472;28;20120;-75
2023/06/01 02:21:48;;;;;;;15.80;2.10;;;11.30;99.90;;;;;;5055581;28;20029;-74
2023/06/01 02:24:14;;;;;;;6.10;1.75;;;11.30;99.90;;;;;;5037430;28;20087;-74
2023/06/01 02:26:40;;;;;;;7.18;2.25;;;11.30;99.90;;;;;;5055368;28;20017;-74
2023/06/01 02:29:05;;;;;;;4.32;1.60;;;11.20;99.90;;;;;;5037257;28;20116;-74
2023/06/01 02:31:32;;;;;;;9.07;2.22;;;11.20;99.90;;;;;;5055668;28;20017;-76
2023/06/01 02:33:59;;;;;;;6.75;1.63;;;11.20;99.90;;;;;;5055454;28;20021;-74
2023/06/01 02:36:26;;;;;;;6.45;1.77;;;11.20;99.90;;;;;;5037245;28;20025;-74
2023/06/01 02:38:51;;;;;;;6.70;1.98;;;11.30;99.90;;;;;;5054899;28;20480;-75
2023/06/01 02:41:17;;;;;;;6.85;2.05;;;11.20;99.90;;;;;;5055612;28;20054;-75
2023/06/01 02:43:43;;;;;;;8.68;2.30;;;11.30;99.90;;;;;;5055125;28;20017;-75
2023/06/01 02:46:08;;;;;;;7.32;2.47;;;12.50;99.90;;;;;;5037111;28;20031;-75
2023/06/01 02:48:34;;;;;;;7.70;2.15;;;11.30;99.90;;;;;;5055028;28;20384;-74
2023/06/01 02:51:00;;;;;;;16.33;3.03;;;11.40;99.90;;;;;;5036879;28;20426;-74
2023/06/01 02:53:28;;;;;;;7.00;2.22;;;11.30;99.90;;;;;;5055189;28;20025;-74
2023/06/01 02:55:53;;;;;;;7.10;2.57;;;11.30;99.90;;;;;;5054880;28;20056;-75
2023/06/01 02:58:19;;;;;;;9.15;2.20;;;11.30;99.90;;;;;;5054657;28;20263;-75
2023/06/01 03:00:45;;;;;;;8.02;2.70;;;11.30;99.90;;;;;;5053547;28;20017;-75
2023/06/01 03:03:11;;;;;;;5.10;1.88;;;11.80;99.90;;;;;;5055001;28;20107;-75
2023/06/01 03:05:37;;;;;;;13.30;2.45;;;11.80;99.90;;;;;;5036916;28;20020;-74
2023/06/01 03:08:05;;;;;;;6.75;2.58;;;11.20;99.90;;;;;;5054604;28;20025;-74
2023/06/01 03:10:31;;;;;;;7.43;1.88;;;11.20;99.90;;;;;;5054489;28;20021;-75
2023/06/01 03:12:57;;;;;;;5.43;2.13;;;11.20;99.90;;;;;;5054263;28;20025;-75
2023/06/01 03:15:23;;;;;;;9.05;2.38;;;12.10;99.90;;;;;;5054350;28;20021;-74
2023/06/01 03:17:49;;;;;;;10.57;2.42;;;11.10;99.90;;;;;;5054264;28;20063;-74
2023/06/01 03:20:14;;;;;;;10.15;2.85;;;11.10;99.90;;;;;;5036898;28;20434;-74
2023/06/01 03:22:44;;;;;;;10.77;3.10;;;11.10;99.90;;;;;;5054510;28;20021;-75
2023/06/01 03:25:12;;;;;;;8.35;3.03;;;11.60;99.90;;;;;;5036415;28;20116;-75
2023/06/01 03:27:38;;;;;;;10.02;2.83;;;11.00;99.90;;;;;;5054124;28;20189;-74
2023/06/01 03:30:09;;;;;;;8.60;3.28;;;11.10;99.90;;;;;;5036137;28;20025;-76
2023/06/01 03:32:37;;;;;;;12.32;2.92;;;11.00;99.90;;;;;;5036169;28;20090;-75
2023/06/01 03:35:03;;;;;;;10.20;3.72;;;11.00;99.90;;;;;;5053985;28;20017;-74
2023/06/01 03:37:29;;;;;;;9.32;3.42;;;11.00;99.90;;;;;;5036185;28;20029;-74
2023/06/01 03:39:54;;;;;;;8.68;2.92;;;11.10;99.90;;;;;;5053896;28;20028;-75
2023/06/01 03:42:20;;;;;;;5.38;2.25;;;11.10;99.90;;;;;;5053920;28;20070;-75
2023/06/01 03:44:45;;;;;;;8.77;3.33;;;11.10;99.90;;;;;;5053887;28;20044;-75
2023/06/01 03:47:11;;;;;;;6.88;2.97;;;11.20;99.90;;;;;;5053862;28;20021;-75
2023/06/01 03:49:36;;;;;;;7.90;2.75;;;11.20;99.90;;;;;;5036008;28;20032;-74
2023/06/01 03:52:02;;;;;;;7.50;2.63;;;11.20;99.90;;;;;;5054095;28;20492;-74
2023/06/01 03:54:28;;;;;;;8.95;3.08;;;11.20;99.90;;;;;;5035723;28;20093;-74
2023/06/01 03:56:53;;;;;;;12.60;3.13;;;11.50;99.90;;;;;;5035748;28;20025;-74
2023/06/01 03:59:19;;;;;;;8.48;2.95;;;12.00;99.90;;;;;;5035605;28;20142;-75
2023/06/01 04:01:45;;;;;;;12.30;2.80;;;11.20;99.90;;;;;;5035619;28;20025;-74
2023/06/01 04:04:12;;;;;;;11.95;3.58;;;11.30;99.90;;;;;;5053678;28;20392;-76
2023/06/01 04:06:38;;;;;;;11.93;3.30;;;11.30;99.90;;;;;;5035586;28;20504;-74
2023/06/01 04:09:08;;;;;;;11.68;3.28;;;11.40;99.90;;;;;;5053362;28;20024;-74
2023/06/01 04:11:33;;;;;;;11.90;4.05;;;11.40;99.90;;;;;;5052966;28;20024;-74
2023/06/01 04:13:59;;;;;;;8.77;3.17;;;11.40;99.90;;;;;;5053290;28;20025;-77
2023/06/01 04:16:25;;;;;;;11.20;3.03;;;11.40;99.90;;;;;;5035702;28;20067;-76
2023/06/01 04:18:51;;;;;;;11.50;3.47;;;11.30;99.90;;;;;;5035548;28;20029;-74
2023/06/01 04:21:17;;;;;;;11.88;3.53;;;11.50;99.90;;;;;;5035433;28;20028;-75
2023/06/01 04:23:43;;;;;;;13.25;3.65;;;12.50;99.90;;;;;;5053287;28;20028;-75
2023/06/01 04:26:08;;;;;;;6.72;3.42;;;11.50;99.90;;;;;;5053249;28;20510;-75
2023/06/01 04:28:35;;;;;;;9.93;3.17;;;11.50;99.90;;;;;;5035350;28;20139;-74
2023/06/01 04:31:02;;;;;;;7.32;2.42;;;11.60;99.90;;;;;;5035317;28;20107;-74
2023/06/01 04:33:27;;;;;;;5.63;2.42;;;11.60;99.90;;;;;;5053234;28;20032;-74
2023/06/01 04:35:53;;;;;;;9.85;2.80;;;11.60;99.90;;;;;;5053184;28;20025;-74
2023/06/01 04:38:20;;;;;;;8.75;3.22;;;11.60;99.90;;;;;;5053281;28;20021;-74
2023/06/01 04:40:46;;;;;;;11.80;3.03;;;11.60;99.90;;;;;;5035283;28;20031;-74
2023/06/01 04:43:12;;;;;;;6.82;2.33;;;11.60;99.90;;;;;;5053083;28;20021;-75
2023/06/01 04:45:38;;;;;;;10.82;2.38;;;12.80;99.90;;;;;;5035176;28;20484;-74
2023/06/01 04:48:08;;;;;;;7.53;2.72;;;11.60;99.90;;;;;;5052927;28;20510;-76
2023/06/01 04:50:34;;;;;;;9.77;3.65;;;11.60;99.90;;;;;;5035149;28;20388;-74
2023/06/01 04:53:00;;;;;;;14.25;3.03;;;11.60;99.90;;;;;;5052807;28;20028;-74
2023/06/01 04:55:26;;;;;;;7.03;2.80;;;11.60;99.90;;;;;;5035097;28;20025;-74
2023/06/01 04:57:52;;;;;;;8.07;2.80;;;11.80;99.90;;;;;;5052984;28;20070;-74
2023/06/01 05:00:18;;;;;;;11.27;2.63;;;11.70;99.90;;;;;;5052853;28;20369;-74
2023/06/01 05:02:46;;;;;;;8.55;2.35;;;11.80;99.90;;;;;;5052867;28;20025;-74
2023/06/01 05:05:12;;;;;;;11.45;2.15;;;11.80;99.90;;;;;;5052785;28;20418;-74
2023/06/01 05:07:39;;;;;;;10.68;2.53;;;11.90;99.90;;;;;;5052656;28;20125;-74
2023/06/01 05:10:06;;;;;;;8.82;2.15;;;11.90;99.90;;;;;;5052640;28;20029;-74
2023/06/01 05:12:33;;;;;;;4.35;1.88;;;11.90;99.90;;;;;;5034689;28;20032;-75
2023/06/01 05:14:59;;;;;;;10.05;2.53;;;12.00;99.90;;;;;;5052689;28;20021;-74
2023/06/01 05:17:25;;;;;;;11.48;2.25;;;12.30;99.90;;;;;;5034803;28;20020;-74
2023/06/01 05:19:51;;;;;;;10.70;2.92;;;12.10;99.90;;;;;;5052575;28;20392;-74
2023/06/01 05:22:16;;;;;;;9.07;2.20;;;12.20;99.90;;;;;;5052615;28;20029;-74
2023/06/01 05:24:42;;;;;;;10.68;2.25;;;12.30;99.90;;;;;;5037860;28;20025;-74
2023/06/01 05:27:08;;;;;;;9.15;2.08;;;13.20;99.90;;;;;;5056330;28;20029;-74
2023/06/01 05:29:33;;;;;;;10.32;2.00;;;12.30;99.90;;;;;;5056344;28;20029;-74
2023/06/01 05:31:59;;;;;;;6.97;1.50;;;12.30;99.90;;;;;;5038368;28;20033;-74
2023/06/01 05:34:25;;;;;;;7.10;1.85;;;12.30;99.90;;;;;;5056259;28;20017;-74
2023/06/01 05:36:50;;;;;;;11.80;1.98;;;12.40;99.90;;;;;;5056355;28;20061;-74
2023/06/01 05:39:16;;;;;;;13.23;3.05;;;12.50;99.90;;;;;;5056056;28;20027;-74
2023/06/01 05:41:42;;;;;;;7.20;2.05;;;12.50;99.90;;;;;;5038092;28;20021;-74
2023/06/01 05:44:07;;;;;;;6.50;1.48;;;12.60;99.90;;;;;;5056037;28;20029;-74
2023/06/01 05:46:33;;;;;;;11.38;2.88;;;12.60;99.90;;;;;;5055977;28;20061;-75
2023/06/01 05:48:59;;;;;;;10.00;2.45;;;12.80;99.90;;;;;;5037914;28;20079;-75
2023/06/01 05:51:24;;;;;;;6.82;1.92;;;12.80;99.90;;;;;;5055781;28;20048;-75
2023/06/01 05:53:50;;;;;;;7.78;1.63;;;12.90;99.90;;;;;;5055842;28;20025;-75
2023/06/01 05:56:16;;;;;;;11.95;1.63;;;12.90;99.90;;;;;;5056343;28;20071;-74
2023/06/01 05:58:43;;;;;;;10.05;1.90;;;13.00;99.90;;;;;;5055632;28;20028;-74
2023/06/01 06:01:10;;;;;;;7.65;2.05;;;13.10;99.90;;;;;;5037849;28;20043;-74
2023/06/01 06:03:36;;;;;;;6.47;1.52;;;13.10;99.90;;;;;;5055506;28;20059;-74
2023/06/01 06:06:02;;;;;;;8.32;1.98;;;13.10;99.90;;;;;;5037308;28;20128;-74
2023/06/01 06:08:28;;;;;;;5.95;1.92;;;13.10;99.90;;;;;;5054266;28;20075;-75
2023/06/01 06:10:53;;;;;;;6.90;1.95;;;13.10;99.90;;;;;;5055340;28;20033;-75
2023/06/01 06:13:19;;;;;;;13.07;2.45;;;13.40;99.90;;;;;;5053835;28;20025;-75
2023/06/01 06:15:45;;;;;;;6.60;2.17;;;13.40;99.90;;;;;;5037015;28;20024;-75
2023/06/01 06:18:10;;;;;;;10.40;2.47;;;13.30;99.90;;;;;;5055459;28;20052;-75
2023/06/01 06:20:36;;;;;;;10.25;2.67;;;13.30;99.90;;;;;;5054805;28;20476;-75
2023/06/01 06:23:01;;;;;;;5.80;2.00;;;13.40;99.90;;;;;;5037096;28;20151;-75
2023/06/01 06:25:27;;;;;;;7.18;2.30;;;13.50;99.90;;;;;;5055307;28;20025;-75
2023/06/01 06:27:53;;;;;;;5.72;1.70;;;13.80;99.90;;;;;;5037355;28;20017;-75
2023/06/01 06:30:18;;;;;;;6.57;2.00;;;13.60;99.90;;;;;;5037240;28;20036;-75
2023/06/01 06:32:44;;;;;;;10.15;2.35;;;13.60;99.90;;;;;;5037235;28;20107;-75
2023/06/01 06:35:13;;;;;;;7.28;2.67;;;13.70;99.90;;;;;;5054766;28;20020;-75
2023/06/01 06:37:41;;;;;;;11.55;2.60;;;13.70;99.90;;;;;;5037096;28;20029;-76
2023/06/01 06:40:09;;;;;;;10.68;1.73;;;13.70;99.90;;;;;;5054955;28;20021;-76
2023/06/01 06:42:35;;;;;;;6.13;2.33;;;13.80;99.90;;;;;;5057848;28;20039;-78
2023/06/01 06:45:00;;;;;;;9.25;2.83;;;13.90;99.90;;;;;;5040148;28;20083;-77
2023/06/01 06:47:26;;;;;;;5.82;2.45;;;14.40;99.90;;;;;;5040388;28;20025;-77
2023/06/01 06:49:52;;;;;;;11.63;2.95;;;14.00;99.90;;;;;;5057582;28;20101;-78
2023/06/01 06:52:18;;;;;;;9.52;1.83;;;14.90;99.90;;;;;;5057364;28;20040;-78
2023/06/01 06:54:44;;;;;;;7.63;1.17;;;15.00;99.90;;;;;;5040144;28;20017;-78
2023/06/01 06:57:10;;;;;;;6.93;2.47;;;14.20;99.90;;;;;;5058471;28;20064;-78
2023/06/01 06:59:36;;;;;;;4.93;1.55;;;14.20;99.90;;;;;;5058054;28;20493;-78
2023/06/01 07:02:03;;;;;;;4.93;1.33;;;14.30;99.90;;;;;;5058271;28;20094;-78
2023/06/01 07:04:29;;;;;;;3.15;1.20;;;14.50;99.90;;;;;;5040019;28;20029;-78
2023/06/01 07:06:54;;;;;;;8.10;1.30;;;14.60;99.90;;;;;;5040306;28;20087;-77
2023/06/01 07:09:20;;;;;;;6.90;1.23;;;14.70;99.90;;;;;;5057860;28;20017;-77
2023/06/01 07:11:47;;;;;;;5.00;0.75;;;14.70;99.90;;;;;;5039445;28;20021;-78
2023/06/01 07:14:13;;;;;;;7.20;1.27;;;14.70;99.90;;;;;;5039726;28;20017;-77
2023/06/01 07:16:39;;;;;;;9.65;1.00;;;16.10;99.90;;;;;;5057181;28;20028;-78
2023/06/01 07:19:05;;;;;;;4.65;1.27;;;15.70;99.90;;;;;;5057057;28;20024;-77
2023/06/01 07:21:30;;;;;;;4.18;0.80;;;15.10;99.90;;;;;;5057440;28;20021;-78
2023/06/01 07:23:56;;;;;;;3.30;0.70;;;16.20;99.90;;;;;;5039422;28;20083;-78
2023/06/01 07:26:25;;;;;;;4.88;1.63;;;15.20;99.90;;;;;;5057246;28;20032;-78
2023/06/01 07:28:52;;;;;;;6.75;1.60;;;15.30;99.90;;;;;;5057266;28;20032;-78
2023/06/01 07:31:19;;;;;;;5.40;1.17;;;15.30;99.90;;;;;;5038606;28;20025;-78
2023/06/01 07:33:45;;;;;;;4.13;0.88;;;15.30;99.90;;;;;;5056639;28;20025;-77
2023/06/01 07:36:12;;;;;;;6.53;1.38;;;15.30;99.90;;;;;;5038774;28;20017;-78
2023/06/01 07:38:37;;;;;;;2.30;0.45;;;15.30;99.90;;;;;;5056737;28;20021;-77
2023/06/01 07:41:03;;;;;;;5.97;1.33;;;15.20;99.90;;;;;;5056925;28;20526;-77
2023/06/01 07:43:28;;;;;;;7.32;1.08;;;15.50;99.90;;;;;;5056720;28;20040;-77
2023/06/01 07:45:54;;;;;;;5.10;1.20;;;15.40;99.90;;;;;;5038098;28;20048;-77
2023/06/01 07:48:20;;;;;;;3.08;0.50;;;15.60;99.90;;;;;;5038412;28;20017;-77
2023/06/01 07:50:46;;;;;;;4.18;0.95;;;15.90;99.90;;;;;;5055852;28;20373;-77
2023/06/01 07:53:12;;;;;;;4.20;0.43;;;16.00;99.90;;;;;;5055921;28;20074;-77
2023/06/01 07:55:37;;;;;;;2.90;0.40;;;16.20;99.90;;;;;;5056038;28;20035;-77
2023/06/01 07:58:04;;;;;;;2.92;0.25;;;16.20;99.90;;;;;;5038154;28;20396;-77
2023/06/01 08:00:29;;;;;;;1.42;0.50;;;16.20;99.90;;;;;;5056158;28;20539;-78
2023/06/01 08:02:57;;;;;;;4.15;0.73;;;16.20;99.90;;;;;;5038501;28;20025;-77
2023/06/01 08:05:23;;;;;;;4.10;0.75;;;16.30;99.90;;;;;;5056512;28;20111;-77
2023/06/01 08:07:49;;;;;;;9.82;0.90;;;16.40;99.90;;;;;;5037544;28;20060;-77
2023/06/01 08:10:14;;;;;;;4.38;0.85;;;16.60;99.90;;;;;;5037776;28;20459;-77
2023/06/01 08:12:42;;;;;;;3.28;0.30;;;16.70;99.90;;;;;;5055140;28;20056;-77
2023/06/01 08:15:10;;;;;;;3.03;0.73;;;16.80;99.90;;;;;;5037368;28;20082;-78
2023/06/01 08:17:35;;;;;;;8.35;0.80;;;16.80;99.90;;;;;;5055283;28;20013;-78
2023/06/01 08:20:06;;;;;;;6.93;1.65;;;16.90;99.90;;;;;;5056112;28;20036;-77
2023/06/01 08:22:31;;;;;;;4.28;0.50;;;17.00;99.90;;;;;;5055737;28;20020;-78
2023/06/01 08:24:57;;;;;;;3.65;0.85;;;17.10;99.90;;;;;;5055681;28;20032;-77
2023/06/01 08:27:23;;;;;;;3.25;0.47;;;17.20;99.90;;;;;;5038342;28;20021;-78
2023/06/01 08:29:49;;;;;;;6.55;0.73;;;17.10;99.90;;;;;;5053403;28;20025;-76
2023/06/01 08:32:16;;;;;;;3.25;0.50;;;17.20;99.90;;;;;;5036086;28;20071;-77
2023/06/01 08:34:46;;;;;;;4.60;0.40;;;17.30;99.90;;;;;;5055913;28;20032;-78
2023/06/01 08:37:15;;;;;;;6.13;0.75;;;18.30;99.90;;;;;;5038243;28;20024;-77
2023/06/01 08:39:41;;;;;;;4.95;0.93;;;16.90;99.90;;;;;;5055337;28;20021;-77
2023/06/01 08:42:08;;;;;;;2.20;0.75;;;16.70;99.90;;;;;;5037262;28;20029;-77
2023/06/01 08:44:39;;;;;;;3.65;0.70;;;16.50;99.90;;;;;;5037484;28;20107;-77
2023/06/01 08:47:06;;;;;;;5.60;0.47;;;16.50;99.90;;;;;;5055544;28;20479;-77
2023/06/01 08:49:33;;;;;;;5.90;0.45;;;16.80;99.90;;;;;;5036965;28;20096;-77
2023/06/01 08:52:12;;;;;;;3.75;0.55;;;16.90;99.90;;;;;;5054540;28;20039;-78
2023/06/01 08:54:38;;;;;;;4.78;0.73;;;16.70;99.90;;;;;;5055351;28;20496;-77
2023/06/01 08:57:07;;;;;;;5.47;0.47;;;16.70;99.90;;;;;;5055694;28;20150;-78
2023/06/01 08:59:33;;;;;;;;;;;17.10;99.90;;;;;;5058508;28;20021;-77
2023/06/01 09:01:59;;;;;;;2.85;0.57;;;17.10;99.90;;;;;;5059082;28;19912;-77
2023/06/01 09:04:26;;;;;;;4.05;0.70;;;17.30;99.90;;;;;;5041721;28;20079;-77
2023/06/01 09:06:52;;;;;;;1.42;0.52;;;17.50;99.90;;;;;;5059261;28;20368;-77
2023/06/01 09:09:18;;;;;;;11.68;0.77;;;17.70;99.90;;;;;;5041366;28;20036;-77
2023/06/01 09:11:44;;;;;;;2.25;0.65;;;17.90;99.90;;;;;;5059138;28;20513;-77
2023/06/01 09:14:25;;;;;;;14.88;1.52;;;18.10;99.90;;;;;;5041041;28;20025;-77
2023/06/01 09:16:51;;;;;;;3.67;0.20;;;18.30;99.90;;;;;;5041486;28;20017;-77
2023/06/01 09:19:20;;;;;;;1.27;0.50;;;18.30;99.90;;;;;;5058559;28;20033;-77
2023/06/01 09:21:59;;;;;;;3.50;0.63;;;18.50;99.90;;;;;;5059173;28;20085;-78
2023/06/01 09:24:25;;;;;;;5.68;0.65;;;18.50;99.90;;;;;;5058707;28;20025;-77
2023/06/01 09:26:58;;;;;;;2.35;0.63;;;18.60;99.90;;;;;;5040759;28;20387;-77
2023/06/01 09:29:24;;;;;;;4.70;0.45;;;18.80;99.90;;;;;;5058552;28;20025;-77
2023/06/01 09:31:49;;;;;;;2.20;0.65;;;18.80;99.90;;;;;;5058802;28;20031;-77
2023/06/01 09:34:20;;;;;;;1.25;0.20;;;18.80;99.90;;;;;;5040226;28;20025;-77
2023/06/01 09:36:48;;;;;;;1.20;0.40;;;18.60;99.90;;;;;;5058618;28;20041;-77
2023/06/01 09:39:16;;;;;;;2.65;0.40;;;18.50;99.90;;;;;;5058632;28;20096;-78
2023/06/01 09:41:46;;;;;;;2.30;0.52;;;18.50;99.90;;;;;;5038398;28;20025;-75
2023/06/01 09:44:13;;;;;;;1.63;0.63;;;18.40;99.90;;;;;;5056067;28;20033;-75
2023/06/01 09:46:49;;;;;;;3.63;0.75;;;18.50;99.90;;;;;;5056064;28;20033;-75
2023/06/01 09:49:24;;;;;;;3.65;0.30;;;18.60;99.90;;;;;;5055799;28;20442;-75
2023/06/01 09:51:51;;;;;;;3.05;0.77;;;18.80;99.90;;;;;;5055801;28;20383;-75
2023/06/01 09:54:27;;;;;;;1.45;0.30;;;19.20;99.90;;;;;;5055892;28;20025;-75
2023/06/01 09:56:54;;;;;;;2.63;0.40;;;19.50;99.90;;;;;;5037945;28;20025;-74
2023/06/01 09:59:22;;;;;;;4.60;0.85;;;19.90;99.90;;;;;;5055721;28;20475;-75
2023/06/01 10:01:53;;;;;;;4.13;0.80;;;19.90;99.90;;;;;;5055733;28;20028;-75
2023/06/01 10:04:24;;;;;;;3.92;0.32;;;20.10;99.90;;;;;;5055628;28;20061;-75
2023/06/01 10:06:51;;;;;;;4.80;0.55;;;20.50;99.90;;;;;;5037818;28;20454;-75
2023/06/01 10:09:19;;;;;;;1.85;0.52;;;20.40;99.30;;;;;;5054915;28;20024;-74
2023/06/01 10:11:47;;;;;;;3.05;0.28;;;19.80;99.90;;;;;;5055423;28;20391;-75
2023/06/01 10:14:13;;;;;;;3.15;0.40;;;19.70;99.90;;;;;;5037608;28;20024;-75
2023/06/01 10:16:40;;;;;;;5.38;0.80;;;19.50;99.90;;;;;;5037555;28;20017;-74
2023/06/01 10:19:07;;;;;;;5.45;0.55;;;19.40;99.90;;;;;;5037354;28;20033;-75
2023/06/01 10:21:33;;;;;;;6.07;1.08;;;19.80;99.90;;;;;;5055420;28;20025;-75
2023/06/01 10:23:59;;;;;;;2.83;0.60;;;19.10;99.90;;;;;;5037444;28;20036;-75
2023/06/01 10:26:27;;;;;;;3.05;0.20;;;18.70;99.90;;;;;;5055301;28;20476;-75
2023/06/01 10:28:55;;;;;;;2.17;0.40;;;18.80;99.90;;;;;;5037530;28;20052;-74
2023/06/01 10:31:41;;;;;;;4.25;0.68;;;19.10;99.90;;;;;;5055149;28;20478;-75
2023/06/01 10:34:11;;;;;;;2.95;0.45;;;19.60;99.90;;;;;;5055129;28;20411;-75
2023/06/01 10:37:05;;;;;;;5.15;0.70;;;19.70;98.50;;;;;;5055073;28;20170;-75
2023/06/01 10:39:34;;;;;;;1.67;0.43;;;19.60;99.10;;;;;;5036993;28;20369;-75
2023/06/01 10:42:12;;;;;;;3.95;0.80;;;20.10;99.20;;;;;;5054966;28;20029;-75
2023/06/01 10:44:38;;;;;;;2.00;0.38;;;20.40;97.40;;;;;;5055004;28;20077;-75
2023/06/01 10:47:24;;;;;;;4.57;0.63;;;20.50;97.20;;;;;;5054923;28;20032;-75
2023/06/01 10:49:50;;;;;;;2.58;0.60;;;20.60;97.50;;;;;;5054330;28;20483;-75
2023/06/01 10:52:34;;;;;;;10.93;0.68;;;20.80;97.80;;;;;;5036751;28;20039;-75
2023/06/01 10:55:13;;;;;;;3.90;0.35;;;21.00;95.20;;;;;;5054666;28;20087;-75
2023/06/01 10:57:40;;;;;;;3.30;0.40;;;21.00;95.80;;;;;;5036853;28;20036;-75
2023/06/01 11:00:28;;;;;;;1.80;0.40;;;21.00;95.50;;;;;;5036724;28;20539;-75
2023/06/01 11:02:57;;;;;;;5.53;0.40;;;21.00;96.10;;;;;;5054688;28;20021;-76
2023/06/01 11:05:38;;;;;;;2.15;0.28;;;20.80;95.70;;;;;;5036765;28;20060;-75
2023/06/01 11:08:19;;;;;;;3.83;0.70;;;20.90;96.30;;;;;;5036619;28;20033;-75
2023/06/01 11:10:51;;;;;;;2.80;0.57;;;20.90;96.30;;;;;;5054509;28;20538;-75
2023/06/01 11:13:39;;;;;;;1.67;0.25;;;21.20;95.00;;;;;;5054420;28;20032;-75
2023/06/01 11:16:09;;;;;;;0.80;0.50;;;21.30;95.90;;;;;;5054515;28;20021;-75
2023/06/01 11:18:43;;;;;;;5.68;0.50;;;21.00;94.70;;;;;;5036207;28;20124;-75
2023/06/01 11:21:21;;;;;;;3.35;0.77;;;20.90;95.40;;;;;;5035445;28;20032;-75
2023/06/01 11:23:47;;;;;;;1.90;0.63;;;20.60;94.10;;;;;;5036162;28;20435;-75
2023/06/01 11:26:16;;;;;;;3.47;0.25;;;20.20;94.60;;;;;;5054495;28;20499;-75
2023/06/01 11:28:42;;;;;;;3.50;0.45;;;20.20;96.00;;;;;;5036202;28;20025;-75
2023/06/01 11:31:13;;;;;;;2.85;0.50;;;20.20;96.70;;;;;;5053975;28;20115;-75
2023/06/01 11:33:40;;;;;;;2.30;0.35;;;20.70;95.50;;;;;;5053954;28;20522;-75
2023/06/01 11:36:10;;;;;;;0.70;0.17;;;20.80;95.50;;;;;;5036182;28;20071;-75
2023/06/01 11:38:39;;;;;;;0.95;0.20;;;21.70;95.70;;;;;;5036008;28;20051;-75
2023/06/01 11:41:06;;;;;;;2.20;0.15;;;21.80;95.70;;;;;;5036349;28;20016;-75
2023/06/01 11:43:32;;;;;;;3.53;0.25;;;22.00;92.70;;;;;;5036106;28;20059;-75
2023/06/01 11:46:06;;;;;;;1.77;0.20;;;21.70;92.50;;;;;;5053972;28;20031;-75
2023/06/01 11:48:36;;;;;;;0.52;0.05;;;21.60;92.60;;;;;;5053743;28;20064;-75
2023/06/01 11:51:03;;;;;;;3.00;0.25;;;21.60;93.60;;;;;;5053998;28;20150;-75
2023/06/01 11:53:33;;;;;;;2.60;0.15;;;21.80;92.50;;;;;;5035780;28;20025;-75
2023/06/01 11:55:59;;;;;;;1.05;0.00;;;21.50;92.90;;;;;;5053682;28;20021;-75
2023/06/01 11:58:29;;;;;;;0.57;0.17;;;21.40;93.50;;;;;;5053579;28;20533;-75
2023/06/01 12:00:56;;;;;;;2.25;0.00;;;21.30;93.60;;;;;;5053645;28;20048;-75
2023/06/01 12:03:24;;;;;;;1.10;0.00;;;21.50;92.90;;;;;;5053620;28;20060;-75
2023/06/01 12:05:49;;;;;;;1.45;0.30;;;21.60;94.30;;;;;;5036058;28;20117;-75
2023/06/01 12:08:18;;;;;;;2.00;0.03;;;21.10;93.90;;;;;;5053276;28;20060;-75
2023/06/01 12:10:46;;;;;;;2.83;0.20;;;21.10;94.20;;;;;;5053637;28;20025;-75
2023/06/01 12:13:12;;;;;;;0.20;0.03;;;20.70;94.80;;;;;;5053475;28;20033;-75
2023/06/01 12:15:38;;;;;;;0.57;0.20;;;20.40;95.70;;;;;;5053339;28;20049;-75
2023/06/01 12:18:05;;;;;;;0.82;0.45;;;20.00;96.00;;;;;;5035396;28;20535;-75
2023/06/01 12:20:34;;;;;;;3.10;0.20;;;20.00;96.30;;;;;;5035727;28;20021;-75
2023/06/01 12:23:03;;;;;;;2.17;0.32;;;19.50;97.00;;;;;;5035390;28;20063;-75
2023/06/01 12:25:31;;;;;;;0.93;0.17;;;19.30;97.70;;;;;;5053262;28;20510;-75
2023/06/01 12:28:01;;;;;;;0.50;0.10;;;;;;;;;;5053230;28;20091;-75
2023/06/01 12:30:26;;;;;;;1.10;0.20;;;18.90;98.50;;;;;;5035912;28;20051;-75
2023/06/01 12:32:52;;;;;;;1.63;0.10;;;18.60;99.80;;;;;;5053320;28;20029;-75
2023/06/01 12:35:17;;;;;;;2.35;0.10;;;18.50;99.90;;;;;;5053115;28;20100;-75
2023/06/01 12:37:43;;;;;;;2.88;0.10;;;18.30;99.90;;;;;;5053048;28;20024;-75
2023/06/01 12:40:10;;;;;;;0.47;0.08;;;18.20;99.90;;;;;;5035091;28;20017;-75
2023/06/01 12:42:38;;;;;;;1.13;0.10;;;17.90;99.90;;;;;;5052955;28;20059;-75
2023/06/01 12:45:08;;;;;;;4.40;0.20;;;18.00;99.90;;;;;;5052998;28;20025;-75
2023/06/01 12:47:41;;;;;;;0.88;0.00;;;17.90;99.90;;;;;;5052968;28;20025;-75
2023/06/01 12:50:12;;;;;;;5.18;0.05;;;18.10;99.90;;;;;;5034980;28;20115;-75